sensor_id;sensor_type;location;lat;lon;timestamp;pressure;altitude;pressure_sealevel;temperature;humidity
76694;BME280;69667;52.136;5.424;2024-03-25T00:01:22;100863.50;;;3.26;100.00
76694;BME280;69667;52.136;5.424;2024-03-25T00:03:51;100868.25;;;3.20;100.00
76694;BME280;69667;52.136;5.424;2024-03-25T00:06:18;100867.53;;;3.16;100.00
76694;BME280;69667;52.136;5.424;2024-03-25T00:08:45;100877.19;;;3.19;100.00
76694;BME280;69667;52.136;5.424;2024-03-25T00:11:13;100871.06;;;3.17;100.00
76694;BME280;69667;52.136;5.424;2024-03-25T00:13:40;100862.91;;;3.20;100.00
76694;BME280;69667;52.136;5.424;2024-03-25T00:16:07;100868.09;;;3.23;100.00
76694;BME280;69667;52.136;5.424;2024-03-25T00:18:37;100860.19;;;3.21;100.00
76694;BME280;69667;52.136;5.424;2024-03-25T00:21:04;100861.13;;;3.20;100.00
76694;BME280;69667;52.136;5.424;2024-03-25T00:23:32;100865.59;;;3.20;100.00
76694;BME280;69667;52.136;5.424;2024-03-25T00:25:59;100858.56;;;3.17;100.00
76694;BME280;69667;52.136;5.424;2024-03-25T00:28:26;100865.91;;;3.12;100.00
76694;BME280;69667;52.136;5.424;2024-03-25T00:30:53;100859.00;;;3.08;100.00
76694;BME280;69667;52.136;5.424;2024-03-25T00:33:21;100860.88;;;3.06;100.00
76694;BME280;69667;52.136;5.424;2024-03-25T00:35:51;100853.00;;;3.03;100.00
76694;BME280;69667;52.136;5.424;2024-03-25T00:38:19;100850.41;;;3.02;100.00
76694;BME280;69667;52.136;5.424;2024-03-25T00:40:46;100848.88;;;2.96;100.00
76694;BME280;69667;52.136;5.424;2024-03-25T00:43:13;100856.00;;;2.96;100.00
76694;BME280;69667;52.136;5.424;2024-03-25T00:45:41;100857.91;;;2.92;100.00
76694;BME280;69667;52.136;5.424;2024-03-25T00:48:08;100854.41;;;2.92;100.00
76694;BME280;69667;52.136;5.424;2024-03-25T00:50:35;100853.75;;;2.87;100.00
76694;BME280;69667;52.136;5.424;2024-03-25T00:53:05;100847.69;;;2.83;100.00
76694;BME280;69667;52.136;5.424;2024-03-25T00:55:34;100847.63;;;2.85;100.00
76694;BME280;69667;52.136;5.424;2024-03-25T00:58:02;100854.72;;;2.84;100.00
76694;BME280;69667;52.136;5.424;2024-03-25T01:00:31;100848.59;;;2.82;100.00
76694;BME280;69667;52.136;5.424;2024-03-25T01:02:58;100848.59;;;2.82;100.00
76694;BME280;69667;52.136;5.424;2024-03-25T01:05:25;100863.06;;;2.77;100.00
76694;BME280;69667;52.136;5.424;2024-03-25T01:07:52;100867.72;;;2.72;100.00
76694;BME280;69667;52.136;5.424;2024-03-25T01:10:22;100859.13;;;2.65;100.00
76694;BME280;69667;52.136;5.424;2024-03-25T01:12:49;100863.66;;;2.63;100.00
76694;BME280;69667;52.136;5.424;2024-03-25T01:15:17;100869.19;;;2.58;100.00
76694;BME280;69667;52.136;5.424;2024-03-25T01:17:44;100864.03;;;2.54;100.00
76694;BME280;69667;52.136;5.424;2024-03-25T01:20:11;100871.34;;;2.49;100.00
76694;BME280;69667;52.136;5.424;2024-03-25T01:22:38;100864.44;;;2.45;100.00
76694;BME280;69667;52.136;5.424;2024-03-25T01:25:07;100862.75;;;2.42;100.00
76694;BME280;69667;52.136;5.424;2024-03-25T01:27:36;100864.63;;;2.40;100.00
76694;BME280;69667;52.136;5.424;2024-03-25T01:30:05;100873.47;;;2.41;100.00
76694;BME280;69667;52.136;5.424;2024-03-25T01:32:33;100867.47;;;2.36;100.00
76694;BME280;69667;52.136;5.424;2024-03-25T01:35:00;100871.09;;;2.35;100.00
76694;BME280;69667;52.136;5.424;2024-03-25T01:37:27;100872.06;;;2.32;100.00
76694;BME280;69667;52.136;5.424;2024-03-25T01:39:55;100866.94;;;2.28;100.00
76694;BME280;69667;52.136;5.424;2024-03-25T01:42:22;100876.84;;;2.24;100.00
76694;BME280;69667;52.136;5.424;2024-03-25T01:44:52;100876.84;;;2.24;100.00
76694;BME280;69667;52.136;5.424;2024-03-25T01:47:19;100875.97;;;2.24;100.00
76694;BME280;69667;52.136;5.424;2024-03-25T01:49:47;100867.91;;;2.25;100.00
76694;BME280;69667;52.136;5.424;2024-03-25T01:52:15;100876.72;;;2.27;100.00
76694;BME280;69667;52.136;5.424;2024-03-25T01:54:43;100872.31;;;2.26;100.00
76694;BME280;69667;52.136;5.424;2024-03-25T01:57:11;100867.13;;;2.23;100.00
76694;BME280;69667;52.136;5.424;2024-03-25T01:59:39;100873.31;;;2.24;100.00
76694;BME280;69667;52.136;5.424;2024-03-25T02:02:09;100877.78;;;2.23;100.00
76694;BME280;69667;52.136;5.424;2024-03-25T02:04:39;100881.41;;;2.21;100.00
76694;BME280;69667;52.136;5.424;2024-03-25T02:07:08;100881.47;;;2.19;100.00
76694;BME280;69667;52.136;5.424;2024-03-25T02:09:38;100877.16;;;2.17;100.00
76694;BME280;69667;52.136;5.424;2024-03-25T02:12:07;100879.00;;;2.15;100.00
76694;BME280;69667;52.136;5.424;2024-03-25T02:14:36;100885.31;;;2.12;100.00
76694;BME280;69667;52.136;5.424;2024-03-25T02:17:04;100881.75;;;2.13;100.00
76694;BME280;69667;52.136;5.424;2024-03-25T02:19:36;100873.84;;;2.10;100.00
76694;BME280;69667;52.136;5.424;2024-03-25T02:22:04;100880.06;;;2.11;100.00
76694;BME280;69667;52.136;5.424;2024-03-25T02:24:33;100881.84;;;2.10;100.00
76694;BME280;69667;52.136;5.424;2024-03-25T02:27:03;100886.00;;;2.17;100.00
76694;BME280;69667;52.136;5.424;2024-03-25T02:29:34;100881.19;;;2.27;100.00
76694;BME280;69667;52.136;5.424;2024-03-25T02:32:01;100873.88;;;2.32;100.00
76694;BME280;69667;52.136;5.424;2024-03-25T02:34:28;100870.06;;;2.37;100.00
76694;BME280;69667;52.136;5.424;2024-03-25T02:36:56;100880.59;;;2.40;100.00
76694;BME280;69667;52.136;5.424;2024-03-25T02:39:23;100874.50;;;2.38;100.00
76694;BME280;69667;52.136;5.424;2024-03-25T02:41:51;100878.25;;;2.33;100.00
76694;BME280;69667;52.136;5.424;2024-03-25T02:44:21;100877.44;;;2.31;100.00
76694;BME280;69667;52.136;5.424;2024-03-25T02:46:49;100877.66;;;2.26;100.00
76694;BME280;69667;52.136;5.424;2024-03-25T02:49:17;100875.78;;;2.28;100.00
76694;BME280;69667;52.136;5.424;2024-03-25T02:51:44;100870.41;;;2.30;100.00
76694;BME280;69667;52.136;5.424;2024-03-25T02:54:12;100876.63;;;2.29;100.00
76694;BME280;69667;52.136;5.424;2024-03-25T02:56:40;100876.63;;;2.29;100.00
76694;BME280;69667;52.136;5.424;2024-03-25T02:59:07;100868.78;;;2.26;100.00
76694;BME280;69667;52.136;5.424;2024-03-25T03:01:36;100864.56;;;2.20;100.00
76694;BME280;69667;52.136;5.424;2024-03-25T03:04:04;100859.31;;;2.19;100.00
76694;BME280;69667;52.136;5.424;2024-03-25T03:06:31;100860.44;;;2.13;100.00
76694;BME280;69667;52.136;5.424;2024-03-25T03:08:58;100861.34;;;2.12;100.00
76694;BME280;69667;52.136;5.424;2024-03-25T03:11:26;100857.84;;;2.12;100.00
76694;BME280;69667;52.136;5.424;2024-03-25T03:13:53;100863.28;;;2.09;100.00
76694;BME280;69667;52.136;5.424;2024-03-25T03:16:20;100861.69;;;2.05;100.00
76694;BME280;69667;52.136;5.424;2024-03-25T03:18:50;100860.00;;;2.02;100.00
76694;BME280;69667;52.136;5.424;2024-03-25T03:21:17;100867.97;;;2.02;100.00
76694;BME280;69667;52.136;5.424;2024-03-25T03:23:45;100864.63;;;1.97;100.00
76694;BME280;69667;52.136;5.424;2024-03-25T03:26:12;100869.22;;;1.94;100.00
76694;BME280;69667;52.136;5.424;2024-03-25T03:28:40;100859.50;;;1.93;100.00
76694;BME280;69667;52.136;5.424;2024-03-25T03:31:08;100859.63;;;1.90;100.00
76694;BME280;69667;52.136;5.424;2024-03-25T03:33:35;100866.13;;;1.83;100.00
76694;BME280;69667;52.136;5.424;2024-03-25T03:36:06;100853.13;;;1.75;100.00
76694;BME280;69667;52.136;5.424;2024-03-25T03:38:33;100851.31;;;1.76;100.00
76694;BME280;69667;52.136;5.424;2024-03-25T03:41:02;100852.38;;;1.72;100.00
76694;BME280;69667;52.136;5.424;2024-03-25T03:43:30;100855.13;;;1.69;100.00
76694;BME280;69667;52.136;5.424;2024-03-25T03:45:57;100854.34;;;1.67;100.00
76694;BME280;69667;52.136;5.424;2024-03-25T03:48:24;100855.31;;;1.64;100.00
76694;BME280;69667;52.136;5.424;2024-03-25T03:50:51;100858.16;;;1.60;100.00
76694;BME280;69667;52.136;5.424;2024-03-25T03:53:22;100854.69;;;1.58;100.00
76694;BME280;69667;52.136;5.424;2024-03-25T03:55:55;100848.56;;;1.56;100.00
76694;BME280;69667;52.136;5.424;2024-03-25T03:58:23;100851.34;;;1.53;100.00
76694;BME280;69667;52.136;5.424;2024-03-25T04:00:51;100843.50;;;1.50;100.00
76694;BME280;69667;52.136;5.424;2024-03-25T04:03:26;100846.28;;;1.47;100.00
76694;BME280;69667;52.136;5.424;2024-03-25T04:05:53;100843.06;;;1.37;100.00
76694;BME280;69667;52.136;5.424;2024-03-25T04:08:23;100835.91;;;1.39;100.00
76694;BME280;69667;52.136;5.424;2024-03-25T04:10:50;100836.84;;;1.38;100.00
76694;BME280;69667;52.136;5.424;2024-03-25T04:13:17;100848.44;;;1.36;100.00
76694;BME280;69667;52.136;5.424;2024-03-25T04:15:44;100833.63;;;1.30;100.00
76694;BME280;69667;52.136;5.424;2024-03-25T04:18:12;100837.25;;;1.27;100.00
76694;BME280;69667;52.136;5.424;2024-03-25T04:20:41;100849.78;;;1.24;100.00
76694;BME280;69667;52.136;5.424;2024-03-25T04:23:09;100844.69;;;1.18;100.00
76694;BME280;69667;52.136;5.424;2024-03-25T04:25:39;100850.84;;;1.20;100.00
76694;BME280;69667;52.136;5.424;2024-03-25T04:28:07;100854.47;;;1.17;100.00
76694;BME280;69667;52.136;5.424;2024-03-25T04:30:34;100847.47;;;1.15;100.00
76694;BME280;69667;52.136;5.424;2024-03-25T04:33:02;100846.66;;;1.13;100.00
76694;BME280;69667;52.136;5.424;2024-03-25T04:35:29;100850.13;;;1.15;100.00
76694;BME280;69667;52.136;5.424;2024-03-25T04:38:00;100850.22;;;1.12;100.00
76694;BME280;69667;52.136;5.424;2024-03-25T04:40:29;100852.09;;;1.10;100.00
76694;BME280;69667;52.136;5.424;2024-03-25T04:43:00;100850.34;;;1.09;100.00
76694;BME280;69667;52.136;5.424;2024-03-25T04:45:27;100852.19;;;1.07;100.00
76694;BME280;69667;52.136;5.424;2024-03-25T04:47:54;100851.47;;;1.03;100.00
76694;BME280;69667;52.136;5.424;2024-03-25T04:50:22;100841.84;;;0.99;100.00
76694;BME280;69667;52.136;5.424;2024-03-25T04:52:49;100846.28;;;0.99;100.00
76694;BME280;69667;52.136;5.424;2024-03-25T04:55:16;100850.00;;;0.95;100.00
76694;BME280;69667;52.136;5.424;2024-03-25T04:57:44;100849.28;;;0.90;100.00
76694;BME280;69667;52.136;5.424;2024-03-25T05:00:15;100847.53;;;0.89;100.00
76694;BME280;69667;52.136;5.424;2024-03-25T05:02:42;100845.94;;;0.85;100.00
76694;BME280;69667;52.136;5.424;2024-03-25T05:05:09;100856.69;;;0.80;100.00
76694;BME280;69667;52.136;5.424;2024-03-25T05:07:37;100853.13;;;0.81;100.00
76694;BME280;69667;52.136;5.424;2024-03-25T05:10:06;100853.09;;;0.83;100.00
76694;BME280;69667;52.136;5.424;2024-03-25T05:12:33;100858.41;;;0.83;100.00
76694;BME280;69667;52.136;5.424;2024-03-25T05:15:00;100853.19;;;0.80;100.00
76694;BME280;69667;52.136;5.424;2024-03-25T05:17:30;100854.22;;;0.76;100.00
76694;BME280;69667;52.136;5.424;2024-03-25T05:19:57;100855.09;;;0.76;100.00
76694;BME280;69667;52.136;5.424;2024-03-25T05:22:24;100868.38;;;0.76;100.00
76694;BME280;69667;52.136;5.424;2024-03-25T05:24:51;100870.16;;;0.76;100.00
76694;BME280;69667;52.136;5.424;2024-03-25T05:27:18;100877.25;;;0.75;100.00
76694;BME280;69667;52.136;5.424;2024-03-25T05:29:46;100876.28;;;0.78;100.00
76694;BME280;69667;52.136;5.424;2024-03-25T05:32:13;100878.06;;;0.77;100.00
76694;BME280;69667;52.136;5.424;2024-03-25T05:34:42;100877.16;;;0.78;100.00
76694;BME280;69667;52.136;5.424;2024-03-25T05:37:10;100888.56;;;0.80;100.00
76694;BME280;69667;52.136;5.424;2024-03-25T05:39:38;100877.88;;;0.82;100.00
76694;BME280;69667;52.136;5.424;2024-03-25T05:42:05;100888.50;;;0.83;100.00
76694;BME280;69667;52.136;5.424;2024-03-25T05:44:33;100882.25;;;0.84;100.00
76694;BME280;69667;52.136;5.424;2024-03-25T05:47:00;100876.00;;;0.85;100.00
76694;BME280;69667;52.136;5.424;2024-03-25T05:49:27;100869.72;;;0.88;100.00
76694;BME280;69667;52.136;5.424;2024-03-25T05:51:57;100867.84;;;0.91;100.00
76694;BME280;69667;52.136;5.424;2024-03-25T05:54:24;100867.66;;;0.96;100.00
76694;BME280;69667;52.136;5.424;2024-03-25T05:56:51;100876.44;;;0.98;100.00
76694;BME280;69667;52.136;5.424;2024-03-25T05:59:20;100873.63;;;1.02;100.00
76694;BME280;69667;52.136;5.424;2024-03-25T06:01:47;100867.22;;;1.08;100.00
76694;BME280;69667;52.136;5.424;2024-03-25T06:04:15;100875.78;;;1.16;100.00
76694;BME280;69667;52.136;5.424;2024-03-25T06:06:43;100878.00;;;1.28;100.00
76694;BME280;69667;52.136;5.424;2024-03-25T06:09:15;100874.81;;;1.42;100.00
76694;BME280;69667;52.136;5.424;2024-03-25T06:11:43;100869.25;;;1.48;100.00
76694;BME280;69667;52.136;5.424;2024-03-25T06:14:12;100873.63;;;1.50;100.00
76694;BME280;69667;52.136;5.424;2024-03-25T06:16:39;100865.31;;;1.58;100.00
76694;BME280;69667;52.136;5.424;2024-03-25T06:19:06;100867.72;;;1.65;100.00
76694;BME280;69667;52.136;5.424;2024-03-25T06:21:34;100871.09;;;1.69;100.00
76694;BME280;69667;52.136;5.424;2024-03-25T06:24:13;100863.56;;;1.80;100.00
76694;BME280;69667;52.136;5.424;2024-03-25T06:26:40;100864.81;;;1.93;100.00
76694;BME280;69667;52.136;5.424;2024-03-25T06:29:07;100862.72;;;2.01;100.00
76694;BME280;69667;52.136;5.424;2024-03-25T06:31:35;100859.56;;;2.13;100.00
76694;BME280;69667;52.136;5.424;2024-03-25T06:34:20;100855.72;;;2.20;100.00
76694;BME280;69667;52.136;5.424;2024-03-25T06:36:51;100849.34;;;2.24;100.00
76694;BME280;69667;52.136;5.424;2024-03-25T06:39:21;100847.34;;;2.29;100.00
76694;BME280;69667;52.136;5.424;2024-03-25T06:41:48;100844.31;;;2.38;100.00
76694;BME280;69667;52.136;5.424;2024-03-25T06:44:19;100852.03;;;2.44;100.00
76694;BME280;69667;52.136;5.424;2024-03-25T06:46:46;100855.06;;;2.56;100.00
76694;BME280;69667;52.136;5.424;2024-03-25T06:49:16;100859.13;;;2.65;100.00
76694;BME280;69667;52.136;5.424;2024-03-25T06:51:44;100854.22;;;2.76;100.00
76694;BME280;69667;52.136;5.424;2024-03-25T06:54:12;100850.00;;;2.91;100.00
76694;BME280;69667;52.136;5.424;2024-03-25T06:56:42;100855.66;;;3.03;100.00
76694;BME280;69667;52.136;5.424;2024-03-25T06:59:23;100844.19;;;3.21;100.00
76694;BME280;69667;52.136;5.424;2024-03-25T07:01:50;100849.75;;;3.35;100.00
76694;BME280;69667;52.136;5.424;2024-03-25T07:04:17;100852.66;;;3.49;100.00
76694;BME280;69667;52.136;5.424;2024-03-25T07:06:44;100857.91;;;3.69;100.00
76694;BME280;69667;52.136;5.424;2024-03-25T07:09:12;100852.66;;;3.86;100.00
76694;BME280;69667;52.136;5.424;2024-03-25T07:11:41;100851.69;;;4.06;100.00
76694;BME280;69667;52.136;5.424;2024-03-25T07:14:13;100840.53;;;4.68;100.00
76694;BME280;69667;52.136;5.424;2024-03-25T07:16:41;100846.47;;;5.24;100.00
76694;BME280;69667;52.136;5.424;2024-03-25T07:19:08;100823.31;;;8.58;100.00
76694;BME280;69667;52.136;5.424;2024-03-25T07:21:37;100820.00;;;12.96;100.00
76694;BME280;69667;52.136;5.424;2024-03-25T07:24:05;100817.97;;;14.20;100.00
76694;BME280;69667;52.136;5.424;2024-03-25T07:26:32;100817.84;;;15.55;100.00
76694;BME280;69667;52.136;5.424;2024-03-25T07:29:04;100816.50;;;17.55;100.00
76694;BME280;69667;52.136;5.424;2024-03-25T07:31:31;100814.22;;;18.43;100.00
76694;BME280;69667;52.136;5.424;2024-03-25T07:33:58;100811.44;;;19.25;100.00
76694;BME280;69667;52.136;5.424;2024-03-25T07:36:26;100815.19;;;19.72;100.00
76694;BME280;69667;52.136;5.424;2024-03-25T07:38:53;100814.84;;;20.61;100.00
76694;BME280;69667;52.136;5.424;2024-03-25T07:41:28;100813.59;;;21.16;100.00
76694;BME280;69667;52.136;5.424;2024-03-25T07:43:55;100814.72;;;21.82;100.00
76694;BME280;69667;52.136;5.424;2024-03-25T07:46:25;100824.59;;;21.91;100.00
76694;BME280;69667;52.136;5.424;2024-03-25T07:48:52;100814.72;;;22.54;100.00
76694;BME280;69667;52.136;5.424;2024-03-25T07:51:19;100807.78;;;23.36;100.00
76694;BME280;69667;52.136;5.424;2024-03-25T07:53:47;100808.66;;;23.43;100.00
76694;BME280;69667;52.136;5.424;2024-03-25T07:56:14;100812.38;;;23.57;100.00
76694;BME280;69667;52.136;5.424;2024-03-25T07:58:42;100818.50;;;24.08;100.00
76694;BME280;69667;52.136;5.424;2024-03-25T08:01:09;100823.22;;;24.54;100.00
76694;BME280;69667;52.136;5.424;2024-03-25T08:03:39;100807.41;;;24.89;100.00
76694;BME280;69667;52.136;5.424;2024-03-25T08:06:07;100820.22;;;24.49;100.00
76694;BME280;69667;52.136;5.424;2024-03-25T08:08:35;100815.69;;;24.89;100.00
76694;BME280;69667;52.136;5.424;2024-03-25T08:11:03;100818.56;;;25.61;100.00
76694;BME280;69667;52.136;5.424;2024-03-25T08:13:30;100825.19;;;25.66;100.00
76694;BME280;69667;52.136;5.424;2024-03-25T08:15:57;100819.38;;;26.27;100.00
76694;BME280;69667;52.136;5.424;2024-03-25T08:18:24;100822.31;;;26.89;100.00
76694;BME280;69667;52.136;5.424;2024-03-25T08:20:54;100816.00;;;25.98;100.00
76694;BME280;69667;52.136;5.424;2024-03-25T08:23:22;100819.41;;;26.13;100.00
76694;BME280;69667;52.136;5.424;2024-03-25T08:25:50;100827.50;;;26.08;100.00
76694;BME280;69667;52.136;5.424;2024-03-25T08:28:17;100825.13;;;26.18;100.00
76694;BME280;69667;52.136;5.424;2024-03-25T08:30:48;100818.81;;;26.56;100.00
76694;BME280;69667;52.136;5.424;2024-03-25T08:33:15;100815.44;;;26.47;100.00
76694;BME280;69667;52.136;5.424;2024-03-25T08:35:42;100816.06;;;27.00;100.00
76694;BME280;69667;52.136;5.424;2024-03-25T08:38:12;100815.69;;;26.90;100.00
76694;BME280;69667;52.136;5.424;2024-03-25T08:40:40;100821.44;;;24.40;100.00
76694;BME280;69667;52.136;5.424;2024-03-25T08:43:07;100823.53;;;18.74;100.00
76694;BME280;69667;52.136;5.424;2024-03-25T08:45:35;100823.91;;;17.02;100.00
76694;BME280;69667;52.136;5.424;2024-03-25T08:48:02;100821.31;;;20.37;100.00
76694;BME280;69667;52.136;5.424;2024-03-25T08:50:30;100829.69;;;16.99;100.00
76694;BME280;69667;52.136;5.424;2024-03-25T08:52:58;100833.50;;;15.43;100.00
76694;BME280;69667;52.136;5.424;2024-03-25T08:55:28;100822.56;;;19.48;100.00
76694;BME280;69667;52.136;5.424;2024-03-25T08:57:55;100815.75;;;22.39;100.00
76694;BME280;69667;52.136;5.424;2024-03-25T09:00:25;100822.72;;;19.46;100.00
76694;BME280;69667;52.136;5.424;2024-03-25T09:02:52;100815.72;;;18.38;100.00
76694;BME280;69667;52.136;5.424;2024-03-25T09:05:20;100815.50;;;16.60;100.00
76694;BME280;69667;52.136;5.424;2024-03-25T09:07:49;100813.09;;;19.82;100.00
76694;BME280;69667;52.136;5.424;2024-03-25T09:10:18;100813.31;;;19.01;100.00
76694;BME280;69667;52.136;5.424;2024-03-25T09:13:06;100814.41;;;20.49;100.00
76694;BME280;69667;52.136;5.424;2024-03-25T09:15:35;100804.28;;;22.35;97.45
76694;BME280;69667;52.136;5.424;2024-03-25T09:18:03;100801.59;;;22.42;93.47
76694;BME280;69667;52.136;5.424;2024-03-25T09:20:31;100793.34;;;23.13;81.17
76694;BME280;69667;52.136;5.424;2024-03-25T09:22:58;100793.13;;;23.63;76.85
76694;BME280;69667;52.136;5.424;2024-03-25T09:25:25;100793.81;;;23.23;71.83
76694;BME280;69667;52.136;5.424;2024-03-25T09:27:52;100798.84;;;22.56;71.99
76694;BME280;69667;52.136;5.424;2024-03-25T09:30:23;100793.44;;;21.09;72.74
76694;BME280;69667;52.136;5.424;2024-03-25T09:32:50;100800.53;;;20.96;74.88
76694;BME280;69667;52.136;5.424;2024-03-25T09:35:19;100800.66;;;18.91;73.10
76694;BME280;69667;52.136;5.424;2024-03-25T09:37:48;100800.59;;;18.10;73.93
76694;BME280;69667;52.136;5.424;2024-03-25T09:40:15;100800.50;;;19.09;69.18
76694;BME280;69667;52.136;5.424;2024-03-25T09:42:47;100805.31;;;17.66;65.63
76694;BME280;69667;52.136;5.424;2024-03-25T09:45:16;100805.75;;;15.76;72.67
76694;BME280;69667;52.136;5.424;2024-03-25T09:47:48;100800.47;;;14.52;79.95
76694;BME280;69667;52.136;5.424;2024-03-25T09:50:16;100794.78;;;14.55;85.43
76694;BME280;69667;52.136;5.424;2024-03-25T09:52:46;100801.44;;;15.83;80.63
76694;BME280;69667;52.136;5.424;2024-03-25T09:55:16;100788.47;;;19.66;64.27
76694;BME280;69667;52.136;5.424;2024-03-25T09:57:43;100786.59;;;20.52;57.90
76694;BME280;69667;52.136;5.424;2024-03-25T10:00:13;100782.78;;;21.06;53.54
76694;BME280;69667;52.136;5.424;2024-03-25T10:02:42;100785.19;;;19.79;52.78
76694;BME280;69667;52.136;5.424;2024-03-25T10:05:12;100773.56;;;18.40;55.42
76694;BME280;69667;52.136;5.424;2024-03-25T10:07:39;100772.06;;;18.54;54.36
76694;BME280;69667;52.136;5.424;2024-03-25T10:10:08;100753.72;;;18.38;52.98
76694;BME280;69667;52.136;5.424;2024-03-25T10:12:37;100755.00;;;18.84;54.15
76694;BME280;69667;52.136;5.424;2024-03-25T10:15:05;100752.94;;;18.78;50.91
76694;BME280;69667;52.136;5.424;2024-03-25T10:17:32;100762.13;;;18.03;53.02
76694;BME280;69667;52.136;5.424;2024-03-25T10:20:01;100756.44;;;17.04;55.06
76694;BME280;69667;52.136;5.424;2024-03-25T10:22:40;100769.81;;;15.73;58.88
76694;BME280;69667;52.136;5.424;2024-03-25T10:25:19;100762.53;;;16.00;58.16
76694;BME280;69667;52.136;5.424;2024-03-25T10:27:53;100753.22;;;16.91;57.21
76694;BME280;69667;52.136;5.424;2024-03-25T10:30:21;100747.78;;;16.91;54.08
76694;BME280;69667;52.136;5.424;2024-03-25T10:33:07;100757.19;;;15.25;58.69
76694;BME280;69667;52.136;5.424;2024-03-25T10:35:35;100753.00;;;15.87;61.65
76694;BME280;69667;52.136;5.424;2024-03-25T10:38:06;100738.72;;;17.08;58.89
76694;BME280;69667;52.136;5.424;2024-03-25T10:40:34;100736.84;;;18.01;54.90
76694;BME280;69667;52.136;5.424;2024-03-25T10:43:03;100736.53;;;18.78;55.49
76694;BME280;69667;52.136;5.424;2024-03-25T10:45:32;100740.44;;;17.09;54.88
76694;BME280;69667;52.136;5.424;2024-03-25T10:48:03;100737.19;;;15.63;58.50
76694;BME280;69667;52.136;5.424;2024-03-25T10:50:35;100736.13;;;14.81;57.71
76694;BME280;69667;52.136;5.424;2024-03-25T10:53:05;100734.44;;;14.52;62.01
76694;BME280;69667;52.136;5.424;2024-03-25T10:55:32;100726.09;;;14.25;60.87
76694;BME280;69667;52.136;5.424;2024-03-25T10:58:01;100731.28;;;14.47;61.85
76694;BME280;69667;52.136;5.424;2024-03-25T11:00:30;100730.56;;;14.35;58.85
76694;BME280;69667;52.136;5.424;2024-03-25T11:02:58;100719.34;;;15.51;57.61
76694;BME280;69667;52.136;5.424;2024-03-25T11:05:26;100711.50;;;15.48;57.15
76694;BME280;69667;52.136;5.424;2024-03-25T11:07:53;100710.63;;;15.48;56.25
76694;BME280;69667;52.136;5.424;2024-03-25T11:10:28;100711.25;;;15.42;58.38
76694;BME280;69667;52.136;5.424;2024-03-25T11:12:56;100708.78;;;15.48;60.23
76694;BME280;69667;52.136;5.424;2024-03-25T11:15:23;100705.44;;;15.54;56.89
76694;BME280;69667;52.136;5.424;2024-03-25T11:17:50;100707.75;;;15.49;55.27
76694;BME280;69667;52.136;5.424;2024-03-25T11:20:18;100709.13;;;15.63;56.78
76694;BME280;69667;52.136;5.424;2024-03-25T11:22:49;100689.16;;;15.99;54.92
76694;BME280;69667;52.136;5.424;2024-03-25T11:25:16;100690.72;;;16.54;54.57
76694;BME280;69667;52.136;5.424;2024-03-25T11:27:47;100683.56;;;17.22;51.90
76694;BME280;69667;52.136;5.424;2024-03-25T11:30:15;100673.00;;;17.52;52.48
76694;BME280;69667;52.136;5.424;2024-03-25T11:32:46;100679.03;;;17.30;51.67
76694;BME280;69667;52.136;5.424;2024-03-25T11:35:14;100680.00;;;17.21;52.22
76694;BME280;69667;52.136;5.424;2024-03-25T11:37:42;100677.16;;;16.80;52.83
76694;BME280;69667;52.136;5.424;2024-03-25T11:40:11;100675.94;;;16.57;52.94
76694;BME280;69667;52.136;5.424;2024-03-25T11:42:42;100674.25;;;16.20;54.10
76694;BME280;69667;52.136;5.424;2024-03-25T11:45:15;100668.00;;;16.10;53.57
76694;BME280;69667;52.136;5.424;2024-03-25T11:47:43;100666.50;;;15.98;55.08
76694;BME280;69667;52.136;5.424;2024-03-25T11:50:12;100661.25;;;15.70;53.41
76694;BME280;69667;52.136;5.424;2024-03-25T11:52:40;100664.81;;;15.06;55.88
76694;BME280;69667;52.136;5.424;2024-03-25T11:55:08;100659.69;;;15.67;57.14
76694;BME280;69667;52.136;5.424;2024-03-25T11:57:36;100648.16;;;16.00;54.73
76694;BME280;69667;52.136;5.424;2024-03-25T12:00:05;100638.03;;;15.93;52.88
76694;BME280;69667;52.136;5.424;2024-03-25T12:02:45;100645.94;;;15.69;51.92
76694;BME280;69667;52.136;5.424;2024-03-25T12:05:16;100654.44;;;14.83;52.87
76694;BME280;69667;52.136;5.424;2024-03-25T12:07:44;100648.91;;;14.18;54.41
76694;BME280;69667;52.136;5.424;2024-03-25T12:10:11;100637.03;;;13.71;56.21
76694;BME280;69667;52.136;5.424;2024-03-25T12:12:57;100642.50;;;13.31;56.27
76694;BME280;69667;52.136;5.424;2024-03-25T12:15:24;100631.31;;;13.64;57.05
76694;BME280;69667;52.136;5.424;2024-03-25T12:17:55;100628.09;;;14.28;56.94
76694;BME280;69667;52.136;5.424;2024-03-25T12:20:24;100619.50;;;14.04;56.41
76694;BME280;69667;52.136;5.424;2024-03-25T12:22:53;100621.78;;;14.27;55.58
76694;BME280;69667;52.136;5.424;2024-03-25T12:25:21;100611.78;;;14.09;56.44
76694;BME280;69667;52.136;5.424;2024-03-25T12:27:48;100615.53;;;14.27;56.05
76694;BME280;69667;52.136;5.424;2024-03-25T12:30:15;100605.19;;;13.92;56.18
76694;BME280;69667;52.136;5.424;2024-03-25T12:32:44;100606.09;;;13.24;56.27
76694;BME280;69667;52.136;5.424;2024-03-25T12:35:14;100602.13;;;12.98;57.50
76694;BME280;69667;52.136;5.424;2024-03-25T12:37:47;100600.22;;;13.19;57.43
76694;BME280;69667;52.136;5.424;2024-03-25T12:40:25;100595.78;;;14.06;56.81
76694;BME280;69667;52.136;5.424;2024-03-25T12:42:53;100601.34;;;14.23;54.36
76694;BME280;69667;52.136;5.424;2024-03-25T12:45:21;100609.91;;;14.57;53.00
76694;BME280;69667;52.136;5.424;2024-03-25T12:47:50;100588.97;;;14.76;50.93
76694;BME280;69667;52.136;5.424;2024-03-25T12:50:20;100595.59;;;14.55;50.20
76694;BME280;69667;52.136;5.424;2024-03-25T12:52:51;100594.34;;;13.82;51.18
76694;BME280;69667;52.136;5.424;2024-03-25T12:55:18;100590.06;;;13.89;52.78